sensor_id;sensor_type;location;lat;lon;timestamp;temperature;humidity
24638;DHT22;12773;50.162;8.548;2022-07-23T00:00:00;24.50;99.90
24638;DHT22;12773;50.162;8.548;2022-07-23T00:02:47;24.50;99.90
24638;DHT22;12773;50.162;8.548;2022-07-23T00:05:35;24.50;99.90
24638;DHT22;12773;50.162;8.548;2022-07-23T00:08:23;24.30;99.90
24638;DHT22;12773;50.162;8.548;2022-07-23T00:11:11;24.20;99.90
24638;DHT22;12773;50.162;8.548;2022-07-23T00:13:58;24.20;99.90
24638;DHT22;12773;50.162;8.548;2022-07-23T00:16:46;24.10;99.90
24638;DHT22;12773;50.162;8.548;2022-07-23T00:19:33;23.90;99.90
24638;DHT22;12773;50.162;8.548;2022-07-23T00:22:21;23.80;99.90
24638;DHT22;12773;50.162;8.548;2022-07-23T00:25:08;23.70;99.90
24638;DHT22;12773;50.162;8.548;2022-07-23T00:27:58;23.70;99.90
24638;DHT22;12773;50.162;8.548;2022-07-23T00:30:45;23.60;99.90
24638;DHT22;12773;50.162;8.548;2022-07-23T00:33:33;23.70;99.90
24638;DHT22;12773;50.162;8.548;2022-07-23T00:36:20;23.70;99.90
24638;DHT22;12773;50.162;8.548;2022-07-23T00:39:08;23.60;99.90
24638;DHT22;12773;50.162;8.548;2022-07-23T00:41:55;23.60;99.90
24638;DHT22;12773;50.162;8.548;2022-07-23T00:44:43;23.60;99.90
24638;DHT22;12773;50.162;8.548;2022-07-23T00:47:32;23.60;99.90
24638;DHT22;12773;50.162;8.548;2022-07-23T00:50:20;23.50;99.90
24638;DHT22;12773;50.162;8.548;2022-07-23T00:53:07;23.50;99.90
24638;DHT22;12773;50.162;8.548;2022-07-23T00:55:54;23.50;99.90
24638;DHT22;12773;50.162;8.548;2022-07-23T00:58:43;23.50;99.90
24638;DHT22;12773;50.162;8.548;2022-07-23T01:01:30;23.50;99.90
24638;DHT22;12773;50.162;8.548;2022-07-23T01:04:18;23.40;99.90
24638;DHT22;12773;50.162;8.548;2022-07-23T01:07:06;23.40;99.90
24638;DHT22;12773;50.162;8.548;2022-07-23T01:09:54;23.30;99.90
24638;DHT22;12773;50.162;8.548;2022-07-23T01:12:42;23.30;99.90
24638;DHT22;12773;50.162;8.548;2022-07-23T01:15:30;23.30;99.90
24638;DHT22;12773;50.162;8.548;2022-07-23T01:18:17;23.20;99.90
24638;DHT22;12773;50.162;8.548;2022-07-23T01:21:05;23.20;99.90
24638;DHT22;12773;50.162;8.548;2022-07-23T01:23:52;23.00;99.90
24638;DHT22;12773;50.162;8.548;2022-07-23T01:26:43;23.00;99.90
24638;DHT22;12773;50.162;8.548;2022-07-23T01:29:30;23.00;99.90
24638;DHT22;12773;50.162;8.548;2022-07-23T01:32:18;23.10;99.90
24638;DHT22;12773;50.162;8.548;2022-07-23T01:35:06;23.00;99.90
24638;DHT22;12773;50.162;8.548;2022-07-23T01:37:54;22.80;99.90
24638;DHT22;12773;50.162;8.548;2022-07-23T01:40:41;22.60;99.90
24638;DHT22;12773;50.162;8.548;2022-07-23T01:43:29;22.60;99.90
24638;DHT22;12773;50.162;8.548;2022-07-23T01:46:17;22.70;99.90
24638;DHT22;12773;50.162;8.548;2022-07-23T01:49:04;22.90;99.90
24638;DHT22;12773;50.162;8.548;2022-07-23T01:51:52;23.00;99.90
24638;DHT22;12773;50.162;8.548;2022-07-23T01:54:49;23.00;99.90
24638;DHT22;12773;50.162;8.548;2022-07-23T01:57:39;23.10;99.90
24638;DHT22;12773;50.162;8.548;2022-07-23T02:00:26;23.00;99.90
24638;DHT22;12773;50.162;8.548;2022-07-23T02:03:13;23.10;99.90
24638;DHT22;12773;50.162;8.548;2022-07-23T02:06:01;23.00;99.90
24638;DHT22;12773;50.162;8.548;2022-07-23T02:08:49;23.00;99.90
24638;DHT22;12773;50.162;8.548;2022-07-23T02:11:36;23.10;99.90
24638;DHT22;12773;50.162;8.548;2022-07-23T02:14:25;23.20;99.90
24638;DHT22;12773;50.162;8.548;2022-07-23T02:17:13;23.10;99.90
24638;DHT22;12773;50.162;8.548;2022-07-23T02:20:01;22.90;99.90
24638;DHT22;12773;50.162;8.548;2022-07-23T02:22:49;22.70;99.90
24638;DHT22;12773;50.162;8.548;2022-07-23T02:25:36;22.70;99.90
24638;DHT22;12773;50.162;8.548;2022-07-23T02:28:23;22.70;99.90
24638;DHT22;12773;50.162;8.548;2022-07-23T02:31:11;22.60;99.90
24638;DHT22;12773;50.162;8.548;2022-07-23T02:33:59;22.60;99.90
24638;DHT22;12773;50.162;8.548;2022-07-23T02:36:47;22.60;99.90
24638;DHT22;12773;50.162;8.548;2022-07-23T02:39:36;22.50;99.90
24638;DHT22;12773;50.162;8.548;2022-07-23T02:42:23;22.50;99.90
24638;DHT22;12773;50.162;8.548;2022-07-23T02:45:10;22.50;99.90
24638;DHT22;12773;50.162;8.548;2022-07-23T02:47:58;22.60;99.90
24638;DHT22;12773;50.162;8.548;2022-07-23T02:50:45;22.70;99.90
24638;DHT22;12773;50.162;8.548;2022-07-23T02:53:33;22.60;99.90
24638;DHT22;12773;50.162;8.548;2022-07-23T02:56:21;22.60;99.90
24638;DHT22;12773;50.162;8.548;2022-07-23T02:59:08;22.60;99.90
24638;DHT22;12773;50.162;8.548;2022-07-23T03:01:56;22.50;99.90
24638;DHT22;12773;50.162;8.548;2022-07-23T03:04:43;22.50;99.90
24638;DHT22;12773;50.162;8.548;2022-07-23T03:07:30;22.50;99.90
24638;DHT22;12773;50.162;8.548;2022-07-23T03:10:18;22.50;99.90
24638;DHT22;12773;50.162;8.548;2022-07-23T03:13:06;22.40;99.90
24638;DHT22;12773;50.162;8.548;2022-07-23T03:15:53;22.30;99.90
24638;DHT22;12773;50.162;8.548;2022-07-23T03:18:41;22.20;99.90
24638;DHT22;12773;50.162;8.548;2022-07-23T03:21:28;22.20;99.90
24638;DHT22;12773;50.162;8.548;2022-07-23T03:24:16;22.10;99.90
24638;DHT22;12773;50.162;8.548;2022-07-23T03:27:04;22.10;99.90
24638;DHT22;12773;50.162;8.548;2022-07-23T03:29:54;22.00;99.90
24638;DHT22;12773;50.162;8.548;2022-07-23T03:32:41;21.90;99.90
24638;DHT22;12773;50.162;8.548;2022-07-23T03:35:28;21.80;99.90
24638;DHT22;12773;50.162;8.548;2022-07-23T03:38:16;21.80;99.90
24638;DHT22;12773;50.162;8.548;2022-07-23T03:41:03;21.80;99.90
24638;DHT22;12773;50.162;8.548;2022-07-23T03:43:51;21.70;99.90
24638;DHT22;12773;50.162;8.548;2022-07-23T03:46:38;21.60;99.90
24638;DHT22;12773;50.162;8.548;2022-07-23T03:49:26;21.70;99.90
24638;DHT22;12773;50.162;8.548;2022-07-23T03:52:13;21.60;99.90
24638;DHT22;12773;50.162;8.548;2022-07-23T03:55:01;21.60;99.90
24638;DHT22;12773;50.162;8.548;2022-07-23T03:57:49;21.60;99.90
24638;DHT22;12773;50.162;8.548;2022-07-23T04:00:36;21.60;99.90
24638;DHT22;12773;50.162;8.548;2022-07-23T04:03:23;21.60;99.90
24638;DHT22;12773;50.162;8.548;2022-07-23T04:06:11;21.60;99.90
24638;DHT22;12773;50.162;8.548;2022-07-23T04:08:58;21.50;99.90
24638;DHT22;12773;50.162;8.548;2022-07-23T04:11:46;21.40;99.90
24638;DHT22;12773;50.162;8.548;2022-07-23T04:14:33;21.40;99.90
24638;DHT22;12773;50.162;8.548;2022-07-23T04:17:21;21.30;99.90
24638;DHT22;12773;50.162;8.548;2022-07-23T04:20:09;21.30;99.90
24638;DHT22;12773;50.162;8.548;2022-07-23T04:22:57;21.20;99.90
24638;DHT22;12773;50.162;8.548;2022-07-23T04:25:44;21.20;99.90
24638;DHT22;12773;50.162;8.548;2022-07-23T04:28:32;20.90;99.90
24638;DHT22;12773;50.162;8.548;2022-07-23T04:31:19;20.80;99.90
24638;DHT22;12773;50.162;8.548;2022-07-23T04:34:09;20.80;99.90
24638;DHT22;12773;50.162;8.548;2022-07-23T04:36:57;20.90;99.90
24638;DHT22;12773;50.162;8.548;2022-07-23T04:39:45;20.90;99.90
24638;DHT22;12773;50.162;8.548;2022-07-23T04:42:32;20.90;99.90
24638;DHT22;12773;50.162;8.548;2022-07-23T04:45:20;20.90;99.90
24638;DHT22;12773;50.162;8.548;2022-07-23T04:48:07;21.00;99.90
24638;DHT22;12773;50.162;8.548;2022-07-23T04:50:55;20.90;99.90
24638;DHT22;12773;50.162;8.548;2022-07-23T04:53:42;20.90;99.90
24638;DHT22;12773;50.162;8.548;2022-07-23T04:56:31;20.90;99.90
24638;DHT22;12773;50.162;8.548;2022-07-23T04:59:17;21.00;99.90
24638;DHT22;12773;50.162;8.548;2022-07-23T05:02:05;21.00;99.90
24638;DHT22;12773;50.162;8.548;2022-07-23T05:04:52;21.10;99.90
24638;DHT22;12773;50.162;8.548;2022-07-23T05:07:39;21.10;99.90
24638;DHT22;12773;50.162;8.548;2022-07-23T05:10:27;21.20;99.90
24638;DHT22;12773;50.162;8.548;2022-07-23T05:13:15;21.30;99.90
24638;DHT22;12773;50.162;8.548;2022-07-23T05:16:03;21.30;99.90
24638;DHT22;12773;50.162;8.548;2022-07-23T05:18:50;21.30;99.90
24638;DHT22;12773;50.162;8.548;2022-07-23T05:21:38;21.30;99.90
24638;DHT22;12773;50.162;8.548;2022-07-23T05:24:25;21.30;99.90
24638;DHT22;12773;50.162;8.548;2022-07-23T05:27:13;21.40;99.90
24638;DHT22;12773;50.162;8.548;2022-07-23T05:30:01;21.30;99.90
24638;DHT22;12773;50.162;8.548;2022-07-23T05:32:48;21.30;99.90
24638;DHT22;12773;50.162;8.548;2022-07-23T05:35:36;21.40;99.90
24638;DHT22;12773;50.162;8.548;2022-07-23T05:38:23;21.40;99.90
24638;DHT22;12773;50.162;8.548;2022-07-23T05:41:11;21.40;99.90
24638;DHT22;12773;50.162;8.548;2022-07-23T05:43:58;21.40;99.90
24638;DHT22;12773;50.162;8.548;2022-07-23T05:46:46;21.60;99.90
24638;DHT22;12773;50.162;8.548;2022-07-23T05:49:36;21.60;99.90
24638;DHT22;12773;50.162;8.548;2022-07-23T05:52:23;21.60;99.90
24638;DHT22;12773;50.162;8.548;2022-07-23T05:55:11;21.70;99.90
24638;DHT22;12773;50.162;8.548;2022-07-23T05:58:00;21.80;99.90
24638;DHT22;12773;50.162;8.548;2022-07-23T06:00:47;21.80;99.90
24638;DHT22;12773;50.162;8.548;2022-07-23T06:03:35;21.80;99.90
24638;DHT22;12773;50.162;8.548;2022-07-23T06:06:22;21.80;99.90
24638;DHT22;12773;50.162;8.548;2022-07-23T06:09:10;21.80;99.90
24638;DHT22;12773;50.162;8.548;2022-07-23T06:11:59;22.00;99.90
24638;DHT22;12773;50.162;8.548;2022-07-23T06:14:47;22.10;99.90
24638;DHT22;12773;50.162;8.548;2022-07-23T06:17:36;22.00;99.90
24638;DHT22;12773;50.162;8.548;2022-07-23T06:20:25;21.90;99.90
24638;DHT22;12773;50.162;8.548;2022-07-23T06:23:12;22.00;99.90
24638;DHT22;12773;50.162;8.548;2022-07-23T06:25:59;22.10;99.90
24638;DHT22;12773;50.162;8.548;2022-07-23T06:28:47;22.10;99.90
24638;DHT22;12773;50.162;8.548;2022-07-23T06:31:34;22.20;99.90
24638;DHT22;12773;50.162;8.548;2022-07-23T06:34:22;22.50;99.90
24638;DHT22;12773;50.162;8.548;2022-07-23T06:37:10;22.60;99.90
24638;DHT22;12773;50.162;8.548;2022-07-23T06:39:59;22.80;99.90
24638;DHT22;12773;50.162;8.548;2022-07-23T06:42:47;22.90;99.90
24638;DHT22;12773;50.162;8.548;2022-07-23T06:45:36;23.00;99.90
24638;DHT22;12773;50.162;8.548;2022-07-23T06:48:23;23.20;99.90
24638;DHT22;12773;50.162;8.548;2022-07-23T06:51:11;23.20;99.90
24638;DHT22;12773;50.162;8.548;2022-07-23T06:53:58;23.30;99.90
24638;DHT22;12773;50.162;8.548;2022-07-23T06:56:46;23.20;99.90
24638;DHT22;12773;50.162;8.548;2022-07-23T06:59:33;23.00;99.90
24638;DHT22;12773;50.162;8.548;2022-07-23T07:02:22;23.00;99.90
24638;DHT22;12773;50.162;8.548;2022-07-23T07:05:10;23.20;99.90
24638;DHT22;12773;50.162;8.548;2022-07-23T07:07:57;23.40;99.90
24638;DHT22;12773;50.162;8.548;2022-07-23T07:10:44;23.60;99.90
24638;DHT22;12773;50.162;8.548;2022-07-23T07:13:31;23.40;99.90
24638;DHT22;12773;50.162;8.548;2022-07-23T07:16:19;23.30;99.90
24638;DHT22;12773;50.162;8.548;2022-07-23T07:19:10;23.40;99.90
24638;DHT22;12773;50.162;8.548;2022-07-23T07:21:55;23.70;99.90
24638;DHT22;12773;50.162;8.548;2022-07-23T07:24:43;23.90;99.90
24638;DHT22;12773;50.162;8.548;2022-07-23T07:27:30;23.80;99.90
24638;DHT22;12773;50.162;8.548;2022-07-23T07:30:17;24.00;99.90
24638;DHT22;12773;50.162;8.548;2022-07-23T07:33:04;24.20;99.90
24638;DHT22;12773;50.162;8.548;2022-07-23T07:35:52;24.20;99.90
24638;DHT22;12773;50.162;8.548;2022-07-23T07:38:39;24.20;99.90
24638;DHT22;12773;50.162;8.548;2022-07-23T07:41:26;24.30;99.90
24638;DHT22;12773;50.162;8.548;2022-07-23T07:44:13;24.20;99.90
24638;DHT22;12773;50.162;8.548;2022-07-23T07:47:01;24.20;99.90
24638;DHT22;12773;50.162;8.548;2022-07-23T07:49:48;24.30;99.90
24638;DHT22;12773;50.162;8.548;2022-07-23T07:52:36;24.30;99.90
24638;DHT22;12773;50.162;8.548;2022-07-23T07:55:24;24.40;99.90
24638;DHT22;12773;50.162;8.548;2022-07-23T07:58:11;24.40;99.90
24638;DHT22;12773;50.162;8.548;2022-07-23T08:00:59;24.50;99.90
24638;DHT22;12773;50.162;8.548;2022-07-23T08:03:47;24.60;99.90
24638;DHT22;12773;50.162;8.548;2022-07-23T08:06:34;24.40;99.90
24638;DHT22;12773;50.162;8.548;2022-07-23T08:09:22;24.40;99.90
24638;DHT22;12773;50.162;8.548;2022-07-23T08:12:09;24.40;99.90
24638;DHT22;12773;50.162;8.548;2022-07-23T08:14:57;24.70;99.90
24638;DHT22;12773;50.162;8.548;2022-07-23T08:17:46;25.00;99.90
24638;DHT22;12773;50.162;8.548;2022-07-23T08:20:34;25.20;99.90
24638;DHT22;12773;50.162;8.548;2022-07-23T08:23:22;25.30;99.90
24638;DHT22;12773;50.162;8.548;2022-07-23T08:26:11;25.30;99.90
24638;DHT22;12773;50.162;8.548;2022-07-23T08:28:58;25.30;99.90
24638;DHT22;12773;50.162;8.548;2022-07-23T08:31:45;25.30;99.90
24638;DHT22;12773;50.162;8.548;2022-07-23T08:34:32;25.30;99.90
24638;DHT22;12773;50.162;8.548;2022-07-23T08:37:20;25.40;99.90
24638;DHT22;12773;50.162;8.548;2022-07-23T08:40:08;25.30;99.90
24638;DHT22;12773;50.162;8.548;2022-07-23T08:42:56;25.50;99.90
24638;DHT22;12773;50.162;8.548;2022-07-23T08:45:46;25.70;99.90
24638;DHT22;12773;50.162;8.548;2022-07-23T08:48:35;25.80;99.90
24638;DHT22;12773;50.162;8.548;2022-07-23T08:51:27;26.00;99.90
24638;DHT22;12773;50.162;8.548;2022-07-23T08:54:14;25.90;99.90
24638;DHT22;12773;50.162;8.548;2022-07-23T08:57:02;26.20;99.90
24638;DHT22;12773;50.162;8.548;2022-07-23T08:59:49;26.60;99.90
24638;DHT22;12773;50.162;8.548;2022-07-23T09:02:41;26.40;99.90
24638;DHT22;12773;50.162;8.548;2022-07-23T09:05:29;26.50;99.90
24638;DHT22;12773;50.162;8.548;2022-07-23T09:08:21;26.70;99.90
24638;DHT22;12773;50.162;8.548;2022-07-23T09:11:18;26.90;99.90
24638;DHT22;12773;50.162;8.548;2022-07-23T09:14:02;27.20;99.90
24638;DHT22;12773;50.162;8.548;2022-07-23T09:16:51;27.40;99.90
24638;DHT22;12773;50.162;8.548;2022-07-23T09:19:39;27.50;99.50
24638;DHT22;12773;50.162;8.548;2022-07-23T09:22:27;27.50;99.80
24638;DHT22;12773;50.162;8.548;2022-07-23T09:25:17;27.60;99.90
24638;DHT22;12773;50.162;8.548;2022-07-23T09:28:04;27.60;99.00
24638;DHT22;12773;50.162;8.548;2022-07-23T09:30:53;27.30;98.70
24638;DHT22;12773;50.162;8.548;2022-07-23T09:33:41;27.50;99.90
24638;DHT22;12773;50.162;8.548;2022-07-23T09:36:29;27.70;98.50
24638;DHT22;12773;50.162;8.548;2022-07-23T09:39:24;27.40;97.60
24638;DHT22;12773;50.162;8.548;2022-07-23T09:42:21;27.40;97.80
24638;DHT22;12773;50.162;8.548;2022-07-23T09:45:11;27.20;97.40
24638;DHT22;12773;50.162;8.548;2022-07-23T09:48:16;27.10;98.70
24638;DHT22;12773;50.162;8.548;2022-07-23T09:51:03;27.20;97.30
24638;DHT22;12773;50.162;8.548;2022-07-23T09:53:52;27.70;99.40
24638;DHT22;12773;50.162;8.548;2022-07-23T09:56:39;28.20;99.00
24638;DHT22;12773;50.162;8.548;2022-07-23T09:59:35;28.30;96.50
24638;DHT22;12773;50.162;8.548;2022-07-23T10:02:20;28.10;95.70
24638;DHT22;12773;50.162;8.548;2022-07-23T10:05:09;28.10;96.50
24638;DHT22;12773;50.162;8.548;2022-07-23T10:07:58;28.50;96.70
24638;DHT22;12773;50.162;8.548;2022-07-23T10:10:47;29.00;97.40
24638;DHT22;12773;50.162;8.548;2022-07-23T10:13:35;29.10;94.20
24638;DHT22;12773;50.162;8.548;2022-07-23T10:16:39;29.10;95.40
24638;DHT22;12773;50.162;8.548;2022-07-23T10:19:26;29.10;93.50
24638;DHT22;12773;50.162;8.548;2022-07-23T10:25:27;29.70;92.60
24638;DHT22;12773;50.162;8.548;2022-07-23T10:31:47;30.70;93.50
24638;DHT22;12773;50.162;8.548;2022-07-23T10:34:41;30.70;90.20
24638;DHT22;12773;50.162;8.548;2022-07-23T10:37:35;30.00;89.50
24638;DHT22;12773;50.162;8.548;2022-07-23T10:40:23;30.00;89.10
24638;DHT22;12773;50.162;8.548;2022-07-23T10:43:13;29.80;90.50
24638;DHT22;12773;50.162;8.548;2022-07-23T10:46:25;29.80;89.70
24638;DHT22;12773;50.162;8.548;2022-07-23T10:49:31;29.40;89.50
24638;DHT22;12773;50.162;8.548;2022-07-23T10:52:22;29.50;89.50
24638;DHT22;12773;50.162;8.548;2022-07-23T10:58:03;28.80;90.20
24638;DHT22;12773;50.162;8.548;2022-07-23T11:00:52;28.70;91.10
24638;DHT22;12773;50.162;8.548;2022-07-23T11:03:39;29.10;90.10
24638;DHT22;12773;50.162;8.548;2022-07-23T11:09:42;28.70;90.10
24638;DHT22;12773;50.162;8.548;2022-07-23T11:12:31;28.90;90.00
24638;DHT22;12773;50.162;8.548;2022-07-23T11:15:19;29.40;90.30
24638;DHT22;12773;50.162;8.548;2022-07-23T11:18:07;29.70;87.20
24638;DHT22;12773;50.162;8.548;2022-07-23T11:20:54;29.90;90.40
24638;DHT22;12773;50.162;8.548;2022-07-23T11:26:58;30.60;84.80
24638;DHT22;12773;50.162;8.548;2022-07-23T11:29:55;30.80;87.20
24638;DHT22;12773;50.162;8.548;2022-07-23T11:32:42;31.30;88.00
24638;DHT22;12773;50.162;8.548;2022-07-23T11:35:29;31.70;81.70
24638;DHT22;12773;50.162;8.548;2022-07-23T11:38:22;31.80;80.30
24638;DHT22;12773;50.162;8.548;2022-07-23T11:41:10;31.50;78.60
24638;DHT22;12773;50.162;8.548;2022-07-23T11:43:57;31.70;81.10
24638;DHT22;12773;50.162;8.548;2022-07-23T11:47:00;32.10;80.70
24638;DHT22;12773;50.162;8.548;2022-07-23T11:49:58;31.80;76.50
24638;DHT22;12773;50.162;8.548;2022-07-23T11:52:47;31.00;81.20
24638;DHT22;12773;50.162;8.548;2022-07-23T11:55:34;30.80;78.20
24638;DHT22;12773;50.162;8.548;2022-07-23T11:58:21;31.20;80.50
24638;DHT22;12773;50.162;8.548;2022-07-23T12:01:09;31.20;74.90
24638;DHT22;12773;50.162;8.548;2022-07-23T12:03:59;31.30;74.70
24638;DHT22;12773;50.162;8.548;2022-07-23T12:06:47;31.00;75.00
24638;DHT22;12773;50.162;8.548;2022-07-23T12:09:34;30.60;76.50
24638;DHT22;12773;50.162;8.548;2022-07-23T12:12:22;30.40;75.70
24638;DHT22;12773;50.162;8.548;2022-07-23T12:15:11;30.40;76.20
24638;DHT22;12773;50.162;8.548;2022-07-23T12:18:01;30.40;75.10
24638;DHT22;12773;50.162;8.548;2022-07-23T12:20:53;30.40;77.80
24638;DHT22;12773;50.162;8.548;2022-07-23T12:23:41;31.10;76.90
24638;DHT22;12773;50.162;8.548;2022-07-23T12:26:30;31.30;75.70
24638;DHT22;12773;50.162;8.548;2022-07-23T12:29:17;31.50;75.30
24638;DHT22;12773;50.162;8.548;2022-07-23T12:32:22;32.00;74.40
24638;DHT22;12773;50.162;8.548;2022-07-23T12:35:10;32.20;71.00
24638;DHT22;12773;50.162;8.548;2022-07-23T12:38:03;32.10;69.40
24638;DHT22;12773;50.162;8.548;2022-07-23T12:40:56;31.80;70.30
24638;DHT22;12773;50.162;8.548;2022-07-23T12:43:45;31.50;69.80
24638;DHT22;12773;50.162;8.548;2022-07-23T12:46:34;31.60;69.50
24638;DHT22;12773;50.162;8.548;2022-07-23T12:49:28;31.50;73.00
24638;DHT22;12773;50.162;8.548;2022-07-23T12:52:29;31.20;70.50
24638;DHT22;12773;50.162;8.548;2022-07-23T12:55:29;31.50;74.10
24638;DHT22;12773;50.162;8.548;2022-07-23T12:58:19;32.10;72.00
24638;DHT22;12773;50.162;8.548;2022-07-23T13:01:08;32.20;68.90
24638;DHT22;12773;50.162;8.548;2022-07-23T13:04:15;31.70;65.20
24638;DHT22;12773;50.162;8.548;2022-07-23T13:07:03;31.50;67.00
24638;DHT22;12773;50.162;8.548;2022-07-23T13:09:51;31.50;66.10
24638;DHT22;12773;50.162;8.548;2022-07-23T13:12:39;31.70;71.50
24638;DHT22;12773;50.162;8.548;2022-07-23T13:15:26;31.80;70.30
24638;DHT22;12773;50.162;8.548;2022-07-23T13:18:14;31.70;68.00
24638;DHT22;12773;50.162;8.548;2022-07-23T13:21:02;31.70;66.70
24638;DHT22;12773;50.162;8.548;2022-07-23T13:23:51;31.40;66.60
24638;DHT22;12773;50.162;8.548;2022-07-23T13:26:40;31.40;67.80
24638;DHT22;12773;50.162;8.548;2022-07-23T13:29:27;31.30;67.00
24638;DHT22;12773;50.162;8.548;2022-07-23T13:32:15;31.30;68.50
24638;DHT22;12773;50.162;8.548;2022-07-23T13:35:02;31.30;67.80
24638;DHT22;12773;50.162;8.548;2022-07-23T13:37:53;31.30;68.00
24638;DHT22;12773;50.162;8.548;2022-07-23T13:40:42;31.40;68.40
24638;DHT22;12773;50.162;8.548;2022-07-23T13:43:30;31.30;66.90
24638;DHT22;12773;50.162;8.548;2022-07-23T13:46:19;31.50;66.60
24638;DHT22;12773;50.162;8.548;2022-07-23T13:49:07;31.60;66.50
24638;DHT22;12773;50.162;8.548;2022-07-23T13:51:55;31.20;66.40
24638;DHT22;12773;50.162;8.548;2022-07-23T13:54:44;31.30;66.90
24638;DHT22;12773;50.162;8.548;2022-07-23T13:57:32;31.40;67.30
24638;DHT22;12773;50.162;8.548;2022-07-23T14:00:20;31.60;65.70
24638;DHT22;12773;50.162;8.548;2022-07-23T14:03:09;31.90;68.20
24638;DHT22;12773;50.162;8.548;2022-07-23T14:05:57;31.80;64.40
24638;DHT22;12773;50.162;8.548;2022-07-23T14:08:47;31.50;64.10
24638;DHT22;12773;50.162;8.548;2022-07-23T14:11:35;31.80;63.00
24638;DHT22;12773;50.162;8.548;2022-07-23T14:14:23;32.10;61.60
24638;DHT22;12773;50.162;8.548;2022-07-23T14:17:11;31.80;64.00
24638;DHT22;12773;50.162;8.548;2022-07-23T14:19:58;31.90;62.10
24638;DHT22;12773;50.162;8.548;2022-07-23T14:22:46;32.10;60.60
24638;DHT22;12773;50.162;8.548;2022-07-23T14:25:34;32.50;58.70
24638;DHT22;12773;50.162;8.548;2022-07-23T14:28:23;32.90;60.40
24638;DHT22;12773;50.162;8.548;2022-07-23T14:31:10;33.30;58.80
24638;DHT22;12773;50.162;8.548;2022-07-23T14:33:59;32.80;57.40
24638;DHT22;12773;50.162;8.548;2022-07-23T14:36:46;32.60;59.20
24638;DHT22;12773;50.162;8.548;2022-07-23T14:39:34;32.50;58.90
24638;DHT22;12773;50.162;8.548;2022-07-23T14:42:21;32.20;57.80
24638;DHT22;12773;50.162;8.548;2022-07-23T14:45:09;32.10;58.60
24638;DHT22;12773;50.162;8.548;2022-07-23T14:47:56;32.30;58.90
24638;DHT22;12773;50.162;8.548;2022-07-23T14:50:44;32.70;58.90
24638;DHT22;12773;50.162;8.548;2022-07-23T14:53:32;32.40;58.60
24638;DHT22;12773;50.162;8.548;2022-07-23T14:56:19;32.40;57.80
24638;DHT22;12773;50.162;8.548;2022-07-23T14:59:07;32.40;57.20
24638;DHT22;12773;50.162;8.548;2022-07-23T15:01:54;32.40;58.00
24638;DHT22;12773;50.162;8.548;2022-07-23T15:04:42;32.50;56.60
24638;DHT22;12773;50.162;8.548;2022-07-23T15:07:29;32.20;57.00
24638;DHT22;12773;50.162;8.548;2022-07-23T15:10:17;31.90;55.50
24638;DHT22;12773;50.162;8.548;2022-07-23T15:13:06;31.90;56.30
24638;DHT22;12773;50.162;8.548;2022-07-23T15:15:54;31.70;56.90
24638;DHT22;12773;50.162;8.548;2022-07-23T15:18:42;31.60;57.00
24638;DHT22;12773;50.162;8.548;2022-07-23T15:21:30;31.60;57.30
24638;DHT22;12773;50.162;8.548;2022-07-23T15:24:17;31.60;56.90
24638;DHT22;12773;50.162;8.548;2022-07-23T15:27:05;31.50;57.00
24638;DHT22;12773;50.162;8.548;2022-07-23T15:29:53;31.60;57.10
24638;DHT22;12773;50.162;8.548;2022-07-23T15:32:40;31.70;56.70
24638;DHT22;12773;50.162;8.548;2022-07-23T15:35:28;31.80;56.80
24638;DHT22;12773;50.162;8.548;2022-07-23T15:38:17;32.00;56.00
24638;DHT22;12773;50.162;8.548;2022-07-23T15:41:06;32.10;56.40
24638;DHT22;12773;50.162;8.548;2022-07-23T15:43:54;32.30;55.30
24638;DHT22;12773;50.162;8.548;2022-07-23T15:46:41;32.10;55.40
24638;DHT22;12773;50.162;8.548;2022-07-23T15:49:29;32.10;54.80
24638;DHT22;12773;50.162;8.548;2022-07-23T15:52:16;31.70;55.40
24638;DHT22;12773;50.162;8.548;2022-07-23T15:55:06;31.90;55.40
24638;DHT22;12773;50.162;8.548;2022-07-23T15:57:54;31.70;55.30
24638;DHT22;12773;50.162;8.548;2022-07-23T16:00:42;31.80;55.90
24638;DHT22;12773;50.162;8.548;2022-07-23T16:03:31;32.10;56.20
24638;DHT22;12773;50.162;8.548;2022-07-23T16:06:18;32.70;55.80
24638;DHT22;12773;50.162;8.548;2022-07-23T16:09:25;32.50;54.30
24638;DHT22;12773;50.162;8.548;2022-07-23T16:12:13;32.10;54.00
24638;DHT22;12773;50.162;8.548;2022-07-23T16:15:00;32.20;55.20
24638;DHT22;12773;50.162;8.548;2022-07-23T16:17:51;32.20;54.10
24638;DHT22;12773;50.162;8.548;2022-07-23T16:20:40;32.00;54.10
24638;DHT22;12773;50.162;8.548;2022-07-23T16:23:28;32.20;54.40
24638;DHT22;12773;50.162;8.548;2022-07-23T16:26:15;32.40;54.40
24638;DHT22;12773;50.162;8.548;2022-07-23T16:29:03;32.60;54.40
24638;DHT22;12773;50.162;8.548;2022-07-23T16:31:52;32.60;54.00
24638;DHT22;12773;50.162;8.548;2022-07-23T16:34:40;32.50;54.40
24638;DHT22;12773;50.162;8.548;2022-07-23T16:37:27;32.40;54.60
24638;DHT22;12773;50.162;8.548;2022-07-23T16:40:14;32.50;54.20
24638;DHT22;12773;50.162;8.548;2022-07-23T16:43:02;32.70;53.20
24638;DHT22;12773;50.162;8.548;2022-07-23T16:45:50;32.70;52.30
24638;DHT22;12773;50.162;8.548;2022-07-23T16:48:37;32.50;52.50
24638;DHT22;12773;50.162;8.548;2022-07-23T16:51:25;32.40;53.50
24638;DHT22;12773;50.162;8.548;2022-07-23T16:54:12;32.00;53.60
24638;DHT22;12773;50.162;8.548;2022-07-23T16:57:01;31.90;54.00
24638;DHT22;12773;50.162;8.548;2022-07-23T16:59:49;31.70;54.80
24638;DHT22;12773;50.162;8.548;2022-07-23T17:02:38;31.70;55.10
24638;DHT22;12773;50.162;8.548;2022-07-23T17:05:25;31.50;55.80
24638;DHT22;12773;50.162;8.548;2022-07-23T17:08:12;31.30;55.10
24638;DHT22;12773;50.162;8.548;2022-07-23T17:11:00;31.10;54.90
24638;DHT22;12773;50.162;8.548;2022-07-23T17:13:47;30.90;55.40
24638;DHT22;12773;50.162;8.548;2022-07-23T17:16:35;30.80;55.40
24638;DHT22;12773;50.162;8.548;2022-07-23T17:19:22;30.50;55.90
24638;DHT22;12773;50.162;8.548;2022-07-23T17:22:10;30.40;56.20
24638;DHT22;12773;50.162;8.548;2022-07-23T17:24:57;30.30;56.60
24638;DHT22;12773;50.162;8.548;2022-07-23T17:27:46;30.10;56.60
24638;DHT22;12773;50.162;8.548;2022-07-23T17:30:35;30.10;57.80
24638;DHT22;12773;50.162;8.548;2022-07-23T17:33:22;30.10;56.80
24638;DHT22;12773;50.162;8.548;2022-07-23T17:36:10;30.10;56.30
24638;DHT22;12773;50.162;8.548;2022-07-23T17:38:57;30.10;57.60
24638;DHT22;12773;50.162;8.548;2022-07-23T17:41:46;30.10;56.40
24638;DHT22;12773;50.162;8.548;2022-07-23T17:44:34;30.20;56.80
24638;DHT22;12773;50.162;8.548;2022-07-23T17:47:22;30.30;57.10
24638;DHT22;12773;50.162;8.548;2022-07-23T17:50:10;30.20;56.30
24638;DHT22;12773;50.162;8.548;2022-07-23T17:52:58;30.20;56.40
24638;DHT22;12773;50.162;8.548;2022-07-23T17:55:45;30.10;56.40
24638;DHT22;12773;50.162;8.548;2022-07-23T17:58:33;30.10;56.20